Venus Seven — H9RN — position and weather

sailwx.info

Track history (hours):
 
Tides and Currents Weather Stations Pressure Air Temp Water Temp Dewpoint Dewpoint Depression Visibility Wind Speed Wind Dir Waves Ship Positions

Venus Seven

Last reported at 2015-Jun-30 16:06 UTC. Time now 2015-Jul-04 20:41 UTC.
Position N 22°45' E 120°08'.

Length 93 m; draft 4.5 m.

Type: Cargo ship. MMSI: 353405000.

Date/timePositionNaut miles runAvg speedWind from/ knotsBaromVisibWave heightAir tempDewpointWater temp
2015-Jun-30 16:06N 22°45' E 120°08'713.3
2015-Jun-30 15:33N 22°38' E 120°11'9 9.0
2015-Jun-30 14:31N 22°33' E 120°20'3 0.5
2015-Jun-30 08:10N 22°36' E 120°17'0 0.0
2015-Jun-30 07:28N 22°36' E 120°17'0 0.0
2015-Jun-30 06:28N 22°36' E 120°17'0 0.0
2015-Jun-30 05:28N 22°36' E 120°17'0 0.0
2015-Jun-30 04:31N 22°36' E 120°17'0 0.0
2015-Jun-30 03:25N 22°36' E 120°17'0 0.0
2015-Jun-30 02:25N 22°36' E 120°17'0 0.0
2015-Jun-30 01:31N 22°36' E 120°17'1 1.5
2015-Jun-30 00:34N 22°37' E 120°16'8 7.8
2015-Jun-29 23:34N 22°42' E 120°10'  
2015-Jun-25 09:29N 33°58' E 134°56'1112.3
2015-Jun-25 08:33N 34°09' E 134°57'1212.0
2015-Jun-25 07:33N 34°21' E 134°60'1211.6
2015-Jun-25 06:34N 34°29' E 135°10'1110.6
2015-Jun-25 05:34N 34°36' E 135°20'5 4.6
2015-Jun-25 04:33N 34°38' E 135°25'0 0.0
2015-Jun-25 03:33N 34°38' E 135°25'0 0.0
2015-Jun-25 02:33N 34°38' E 135°25'0 0.0
2015-Jun-25 01:33N 34°38' E 135°25'0 0.0
2015-Jun-25 00:33N 34°38' E 135°25'0 0.0
2015-Jun-24 23:33N 34°38' E 135°25'0 0.0
2015-Jun-24 22:33N 34°38' E 135°25'0 0.0
2015-Jun-24 21:33N 34°38' E 135°25'0 0.0
2015-Jun-24 20:32N 34°38' E 135°25'0 0.0
2015-Jun-24 19:32N 34°38' E 135°25'0 0.0
2015-Jun-24 18:32N 34°38' E 135°25'0 0.0
2015-Jun-24 17:32N 34°38' E 135°25'0 0.0
2015-Jun-24 16:32N 34°38' E 135°25'0 0.0
2015-Jun-24 15:32N 34°38' E 135°25'0 0.0
2015-Jun-24 14:26N 34°38' E 135°25'0 0.0
2015-Jun-24 13:32N 34°38' E 135°25'0 0.0
2015-Jun-24 12:08N 34°38' E 135°25'0 0.0
2015-Jun-24 11:32N 34°38' E 135°25'0 0.0
2015-Jun-24 10:32N 34°38' E 135°25'0 0.0
2015-Jun-24 09:32N 34°38' E 135°25'0 0.0
2015-Jun-24 08:20N 34°38' E 135°25'0 0.0
2015-Jun-24 07:26N 34°38' E 135°25'0 0.0
2015-Jun-24 06:32N 34°38' E 135°25'0 0.0
2015-Jun-24 05:32N 34°38' E 135°25'0 0.0
2015-Jun-24 04:32N 34°38' E 135°25'0 0.0
2015-Jun-24 03:32N 34°38' E 135°25'0 0.0
2015-Jun-24 02:32N 34°38' E 135°25'0 0.0
2015-Jun-24 01:32N 34°38' E 135°25'0 0.0
2015-Jun-24 00:26N 34°38' E 135°25'0 0.0
2015-Jun-23 23:32N 34°38' E 135°25'0 0.0
2015-Jun-23 22:32N 34°38' E 135°25'2 2.4
2015-Jun-23 21:33N 34°37' E 135°22'0 0.1
2015-Jun-23 20:32N 34°37' E 135°22'0 0.0
2015-Jun-23 19:26N 34°37' E 135°22'0 0.0
2015-Jun-23 19:02N 34°37' E 135°22'  
Track history (hours):
 
Tides and Currents Weather Stations Pressure Air Temp Water Temp Dewpoint Dewpoint Depression Visibility Wind Speed Wind Dir Waves Ship Positions

Venus Seven

Last reported at 2015-Jun-30 16:06 UTC. Time now 2015-Jul-04 20:41 UTC.
Position N 22°45' E 120°08'.

Length 93 m; draft 4.5 m.

Type: Cargo ship. MMSI: 353405000.

Date/timePositionNaut miles runAvg speedWind from/ knotsBaromVisibWave heightAir tempDewpointWater temp
2015-Jun-30 16:06N 22°45' E 120°08'713.3
2015-Jun-30 15:33N 22°38' E 120°11'9 9.0
2015-Jun-30 14:31N 22°33' E 120°20'3 0.5
2015-Jun-30 08:10N 22°36' E 120°17'0 0.0
2015-Jun-30 07:28N 22°36' E 120°17'0 0.0
2015-Jun-30 06:28N 22°36' E 120°17'0 0.0
2015-Jun-30 05:28N 22°36' E 120°17'0 0.0
2015-Jun-30 04:31N 22°36' E 120°17'0 0.0
2015-Jun-30 03:25N 22°36' E 120°17'0 0.0
2015-Jun-30 02:25N 22°36' E 120°17'0 0.0
2015-Jun-30 01:31N 22°36' E 120°17'1 1.5
2015-Jun-30 00:34N 22°37' E 120°16'8 7.8
2015-Jun-29 23:34N 22°42' E 120°10'  
2015-Jun-25 09:29N 33°58' E 134°56'1112.3
2015-Jun-25 08:33N 34°09' E 134°57'1212.0
2015-Jun-25 07:33N 34°21' E 134°60'1211.6
2015-Jun-25 06:34N 34°29' E 135°10'1110.6
2015-Jun-25 05:34N 34°36' E 135°20'5 4.6
2015-Jun-25 04:33N 34°38' E 135°25'0 0.0
2015-Jun-25 03:33N 34°38' E 135°25'0 0.0
2015-Jun-25 02:33N 34°38' E 135°25'0 0.0
2015-Jun-25 01:33N 34°38' E 135°25'0 0.0
2015-Jun-25 00:33N 34°38' E 135°25'0 0.0
2015-Jun-24 23:33N 34°38' E 135°25'0 0.0
2015-Jun-24 22:33N 34°38' E 135°25'0 0.0
2015-Jun-24 21:33N 34°38' E 135°25'0 0.0
2015-Jun-24 20:32N 34°38' E 135°25'0 0.0
2015-Jun-24 19:32N 34°38' E 135°25'0 0.0
2015-Jun-24 18:32N 34°38' E 135°25'0 0.0
2015-Jun-24 17:32N 34°38' E 135°25'0 0.0
2015-Jun-24 16:32N 34°38' E 135°25'0 0.0
2015-Jun-24 15:32N 34°38' E 135°25'0 0.0
2015-Jun-24 14:26N 34°38' E 135°25'0 0.0
2015-Jun-24 13:32N 34°38' E 135°25'0 0.0
2015-Jun-24 12:08N 34°38' E 135°25'0 0.0
2015-Jun-24 11:32N 34°38' E 135°25'0 0.0
2015-Jun-24 10:32N 34°38' E 135°25'0 0.0
2015-Jun-24 09:32N 34°38' E 135°25'0 0.0
2015-Jun-24 08:20N 34°38' E 135°25'0 0.0
2015-Jun-24 07:26N 34°38' E 135°25'0 0.0
2015-Jun-24 06:32N 34°38' E 135°25'0 0.0
2015-Jun-24 05:32N 34°38' E 135°25'0 0.0
2015-Jun-24 04:32N 34°38' E 135°25'0 0.0
2015-Jun-24 03:32N 34°38' E 135°25'0 0.0
2015-Jun-24 02:32N 34°38' E 135°25'0 0.0
2015-Jun-24 01:32N 34°38' E 135°25'0 0.0
2015-Jun-24 00:26N 34°38' E 135°25'0 0.0
2015-Jun-23 23:32N 34°38' E 135°25'0 0.0
2015-Jun-23 22:32N 34°38' E 135°25'2 2.4
2015-Jun-23 21:33N 34°37' E 135°22'0 0.1
2015-Jun-23 20:32N 34°37' E 135°22'0 0.0
2015-Jun-23 19:26N 34°37' E 135°22'0 0.0
2015-Jun-23 19:02N 34°37' E 135°22'  

Dump ship's entire track history